createdAt,value
2018-09-06T00:01:04.327Z,24.87
2018-09-06T00:03:32.639Z,25.07
2018-09-06T00:06:00.995Z,25.20
2018-09-06T00:08:29.308Z,26.57
2018-09-06T00:10:58.577Z,24.50
2018-09-06T00:13:26.897Z,25.70
2018-09-06T00:15:55.253Z,25.47
2018-09-06T00:18:23.578Z,25.17
2018-09-06T00:20:51.933Z,25.07
2018-09-06T00:23:20.242Z,26.93
2018-09-06T00:25:48.584Z,25.57
2018-09-06T00:28:16.899Z,24.80
2018-09-06T00:30:45.238Z,25.60
2018-09-06T00:33:13.555Z,25.67
2018-09-06T00:35:41.889Z,25.93
2018-09-06T00:38:10.268Z,25.80
2018-09-06T00:40:38.625Z,25.20
2018-09-06T00:43:06.921Z,26.13
2018-09-06T00:45:35.295Z,25.47
2018-09-06T00:48:03.616Z,26.47
2018-09-06T00:50:36.984Z,27.50
2018-09-06T00:53:05.372Z,26.13
2018-09-06T00:55:34.225Z,26.17
2018-09-06T00:58:02.556Z,24.70
2018-09-06T01:00:30.896Z,25.37
2018-09-06T01:02:59.236Z,24.53
2018-09-06T01:05:28.457Z,25.30
2018-09-06T01:07:56.769Z,28.57
2018-09-06T01:10:25.108Z,25.07
2018-09-06T01:12:53.405Z,27.50
2018-09-06T01:15:21.726Z,29.43
2018-09-06T01:17:50.033Z,26.97
2018-09-06T01:20:18.353Z,26.43
2018-09-06T01:22:46.654Z,29.93
2018-09-06T01:25:14.984Z,28.40
2018-09-06T01:27:43.296Z,29.77
2018-09-06T01:30:11.612Z,28.03
2018-09-06T01:32:40.137Z,26.33
2018-09-06T01:35:08.457Z,27.23
2018-09-06T01:37:36.773Z,27.47
2018-09-06T01:40:05.164Z,28.73
2018-09-06T01:42:33.462Z,29.00
2018-09-06T01:45:01.769Z,27.47
2018-09-06T01:47:30.133Z,27.33
2018-09-06T01:49:58.440Z,28.33
2018-09-06T01:52:26.785Z,29.73
2018-09-06T01:54:55.072Z,26.97
2018-09-06T01:57:23.385Z,30.07
2018-09-06T01:59:51.702Z,29.97
2018-09-06T02:02:20.057Z,32.10
2018-09-06T02:04:48.382Z,31.83
2018-09-06T02:07:16.713Z,30.10
2018-09-06T02:09:45.016Z,30.23
2018-09-06T02:12:13.381Z,32.57
2018-09-06T02:14:41.688Z,28.57
2018-09-06T02:17:10.040Z,31.17
2018-09-06T02:19:38.357Z,29.77
2018-09-06T02:22:06.703Z,29.03
2018-09-06T02:24:35.053Z,34.70
2018-09-06T02:27:03.370Z,30.80
2018-09-06T02:29:31.682Z,29.70
2018-09-06T02:32:00.697Z,28.00
2018-09-06T02:34:29.008Z,29.87
2018-09-06T02:36:57.334Z,28.13
2018-09-06T02:39:25.649Z,28.40
2018-09-06T02:41:53.992Z,28.53
2018-09-06T02:44:22.322Z,30.23
2018-09-06T02:46:50.652Z,28.57
2018-09-06T02:49:23.221Z,29.03
2018-09-06T02:51:51.590Z,28.90
2018-09-06T02:54:19.897Z,33.53
2018-09-06T02:56:48.228Z,28.00
2018-09-06T02:59:16.566Z,27.37
2018-09-06T03:01:44.937Z,29.73
2018-09-06T03:04:13.252Z,29.73
2018-09-06T03:06:41.581Z,27.33
2018-09-06T03:09:09.920Z,29.43
2018-09-06T03:11:43.575Z,29.67
2018-09-06T03:14:12.063Z,29.80
2018-09-06T03:16:40.393Z,29.40
2018-09-06T03:19:08.717Z,29.43
2018-09-06T03:21:37.054Z,30.83
2018-09-06T03:24:05.363Z,30.17
2018-09-06T03:26:33.699Z,29.17
2018-09-06T03:29:02.005Z,28.73
2018-09-06T03:31:30.348Z,31.83
2018-09-06T03:33:58.657Z,29.23
2018-09-06T03:36:26.987Z,32.20
2018-09-06T03:38:55.316Z,30.20
2018-09-06T03:41:23.636Z,31.73
2018-09-06T03:43:52.012Z,30.07
2018-09-06T03:46:20.345Z,30.30
2018-09-06T03:48:48.692Z,32.47
2018-09-06T03:51:16.991Z,32.97
2018-09-06T03:53:45.315Z,31.97
2018-09-06T03:56:13.613Z,30.27
2018-09-06T03:58:41.956Z,31.07
2018-09-06T04:01:10.289Z,28.27
2018-09-06T04:03:38.584Z,30.17
2018-09-06T04:06:06.900Z,29.70
2018-09-06T04:08:35.266Z,31.00
2018-09-06T04:11:03.577Z,29.60
2018-09-06T04:13:31.997Z,29.00
2018-09-06T04:16:00.309Z,31.13
2018-09-06T04:18:28.710Z,31.90
2018-09-06T04:20:56.949Z,29.77
2018-09-06T04:23:25.328Z,28.50
2018-09-06T04:25:53.648Z,30.33
2018-09-06T04:28:22.018Z,28.30
2018-09-06T04:30:50.348Z,29.63
2018-09-06T04:33:18.680Z,28.77
2018-09-06T04:35:46.989Z,28.23
2018-09-06T04:38:15.321Z,28.40
2018-09-06T04:40:43.628Z,26.87
2018-09-06T04:43:11.948Z,31.37
2018-09-06T04:45:40.268Z,29.20
2018-09-06T04:48:08.610Z,28.23
2018-09-06T04:50:36.937Z,28.27
2018-09-06T04:53:05.276Z,29.53
2018-09-06T04:55:33.585Z,29.23
2018-09-06T04:58:01.941Z,29.67
2018-09-06T05:00:30.247Z,30.10
2018-09-06T05:02:58.608Z,29.13
2018-09-06T05:05:26.912Z,30.70
2018-09-06T05:07:55.245Z,32.10
2018-09-06T05:10:23.557Z,33.83
2018-09-06T05:12:51.901Z,31.27
2018-09-06T05:15:20.652Z,32.77
2018-09-06T05:17:48.977Z,31.93
2018-09-06T05:20:17.297Z,29.73
2018-09-06T05:22:45.628Z,31.77
2018-09-06T05:25:13.968Z,30.20
2018-09-06T05:27:42.294Z,30.10
2018-09-06T05:30:10.601Z,29.33
2018-09-06T05:32:38.937Z,30.67
2018-09-06T05:35:07.293Z,29.50
2018-09-06T05:37:35.594Z,33.97
2018-09-06T05:40:03.949Z,30.87
2018-09-06T05:42:32.245Z,31.03
2018-09-06T05:45:00.579Z,30.10
2018-09-06T05:47:28.993Z,28.83
2018-09-06T05:49:57.289Z,28.03
2018-09-06T05:52:25.597Z,30.97
2018-09-06T05:54:53.938Z,29.40
2018-09-06T05:57:22.245Z,27.93
2018-09-06T05:59:50.644Z,28.30
2018-09-06T06:02:18.921Z,26.83
2018-09-06T06:04:47.244Z,30.00
2018-09-06T06:07:15.558Z,27.37
2018-09-06T06:09:43.886Z,26.80
2018-09-06T06:12:12.199Z,28.20
2018-09-06T06:14:40.529Z,28.57
2018-09-06T06:17:08.920Z,27.90
2018-09-06T06:19:37.284Z,28.10
2018-09-06T06:22:05.640Z,25.50
2018-09-06T06:24:33.965Z,26.70
2018-09-06T06:27:02.279Z,28.43
2018-09-06T06:29:30.605Z,26.97
2018-09-06T06:31:59.003Z,32.00
2018-09-06T06:34:27.234Z,28.30
2018-09-06T06:36:55.540Z,31.13
2018-09-06T06:39:23.901Z,29.53
2018-09-06T06:41:52.221Z,29.70
2018-09-06T06:44:20.560Z,30.47
2018-09-06T06:46:48.861Z,27.40
2018-09-06T06:49:17.176Z,28.20
2018-09-06T06:51:45.483Z,25.23
2018-09-06T06:54:13.825Z,26.50
2018-09-06T06:56:42.166Z,27.30
2018-09-06T06:59:10.505Z,30.10
2018-09-06T07:01:38.928Z,29.60
2018-09-06T07:04:06.967Z,27.37
2018-09-06T07:06:35.232Z,32.73
2018-09-06T07:09:03.784Z,28.63
2018-09-06T07:11:32.110Z,29.63
2018-09-06T07:14:00.425Z,28.00
2018-09-06T07:16:28.724Z,27.87
2018-09-06T07:18:57.053Z,25.23
2018-09-06T07:21:25.380Z,25.00
2018-09-06T07:23:53.712Z,24.50
2018-09-06T07:26:22.025Z,26.43
2018-09-06T07:28:50.352Z,24.27
2018-09-06T07:31:18.646Z,26.47
2018-09-06T07:33:46.970Z,25.57
2018-09-06T07:36:15.279Z,23.40
2018-09-06T07:38:43.618Z,25.90
2018-09-06T07:41:11.921Z,26.03
2018-09-06T07:43:40.228Z,23.33
2018-09-06T07:46:08.620Z,22.70
2018-09-06T07:48:36.935Z,23.13
2018-09-06T07:51:05.480Z,21.03
2018-09-06T07:53:33.792Z,21.90
2018-09-06T07:56:02.093Z,20.30
2018-09-06T07:58:30.401Z,20.13
2018-09-06T08:00:58.777Z,20.27
2018-09-06T08:03:27.140Z,19.70
2018-09-06T08:05:55.516Z,18.77
2018-09-06T08:08:23.829Z,19.37
2018-09-06T08:10:52.137Z,22.17
2018-09-06T08:13:20.453Z,22.40
2018-09-06T08:15:48.752Z,23.33
2018-09-06T08:18:17.055Z,21.90
2018-09-06T08:20:45.398Z,22.47
2018-09-06T08:23:13.712Z,21.77
2018-09-06T08:25:42.048Z,20.60
2018-09-06T08:28:10.378Z,20.43
2018-09-06T08:30:38.722Z,20.37
2018-09-06T08:33:07.049Z,20.63
2018-09-06T08:35:35.378Z,19.77
2018-09-06T08:38:03.733Z,18.77
2018-09-06T08:40:32.069Z,18.07
2018-09-06T08:43:00.373Z,19.60
2018-09-06T08:45:28.788Z,18.37
2018-09-06T08:47:57.044Z,18.33
2018-09-06T08:50:25.370Z,18.40
2018-09-06T08:52:54.021Z,19.57
2018-09-06T08:55:22.353Z,18.90
2018-09-06T08:57:50.660Z,17.10
2018-09-06T09:00:19.065Z,19.00
2018-09-06T09:02:47.500Z,18.10
2018-09-06T09:05:15.712Z,17.07
2018-09-06T09:07:44.025Z,18.23
2018-09-06T09:10:12.364Z,17.83
2018-09-06T09:12:40.696Z,18.57
2018-09-06T09:15:09.076Z,18.27
2018-09-06T09:17:37.404Z,21.50
2018-09-06T09:20:05.820Z,18.47
2018-09-06T09:22:34.190Z,18.33
2018-09-06T09:25:02.521Z,17.63
2018-09-06T09:27:30.901Z,16.97
2018-09-06T09:29:59.212Z,18.00
2018-09-06T09:32:27.544Z,17.93
2018-09-06T09:34:55.938Z,18.00
2018-09-06T09:37:24.349Z,19.77
2018-09-06T09:39:52.705Z,16.80
2018-09-06T09:42:21.041Z,16.53
2018-09-06T09:44:49.364Z,17.33
2018-09-06T09:49:45.317Z,16.70
2018-09-06T09:52:13.707Z,16.40
2018-09-06T09:54:42.025Z,17.13
2018-09-06T09:57:10.437Z,18.13
2018-09-06T09:59:38.721Z,18.07
2018-09-06T10:03:16.593Z,16.63
2018-09-06T10:06:48.084Z,17.63
2018-09-06T10:09:20.445Z,18.97
2018-09-06T10:11:48.787Z,17.07
2018-09-06T10:14:17.121Z,18.43
2018-09-06T10:16:45.992Z,16.20
2018-09-06T10:19:14.409Z,18.07
2018-09-06T10:21:42.776Z,16.50
2018-09-06T10:24:11.553Z,16.40
2018-09-06T10:26:39.912Z,16.73
2018-09-06T10:29:08.293Z,16.80
2018-09-06T10:31:36.636Z,16.77
2018-09-06T10:34:05.049Z,18.77
2018-09-06T10:36:33.837Z,16.63
2018-09-06T10:39:02.196Z,16.67
2018-09-06T10:41:30.536Z,16.27
2018-09-06T10:43:58.897Z,16.50
2018-09-06T10:46:27.219Z,17.93
2018-09-06T10:48:55.552Z,16.63
2018-09-06T10:51:23.873Z,15.30
2018-09-06T10:53:52.211Z,15.90
2018-09-06T10:56:20.544Z,17.23
2018-09-06T10:58:48.957Z,16.50
2018-09-06T11:01:22.204Z,15.37
2018-09-06T11:03:52.045Z,15.93
2018-09-06T11:06:20.395Z,15.73
2018-09-06T11:08:48.744Z,15.80
2018-09-06T11:11:17.096Z,15.40
2018-09-06T11:13:45.415Z,16.60
2018-09-06T11:16:14.043Z,14.93
2018-09-06T11:18:42.392Z,15.20
2018-09-06T11:21:11.051Z,15.23
2018-09-06T11:23:39.216Z,16.60
2018-09-06T11:26:07.545Z,14.43
2018-09-06T11:28:35.885Z,15.37
2018-09-06T11:31:04.194Z,13.67
2018-09-06T11:33:32.541Z,13.30
2018-09-06T11:36:00.878Z,13.63
2018-09-06T11:38:29.208Z,13.23
2018-09-06T11:40:57.540Z,13.73
2018-09-06T11:43:25.897Z,12.77
2018-09-06T11:45:54.257Z,14.37
2018-09-06T11:48:22.645Z,13.70
2018-09-06T11:50:50.940Z,13.83
2018-09-06T11:53:19.280Z,13.77
2018-09-06T11:55:47.585Z,13.80
2018-09-06T11:58:15.960Z,13.47
2018-09-06T12:00:44.949Z,12.47
2018-09-06T12:03:13.353Z,12.90
2018-09-06T12:05:41.688Z,12.90
2018-09-06T12:08:10.017Z,12.50
2018-09-06T12:10:38.336Z,12.37
2018-09-06T12:13:06.672Z,12.85
2018-09-06T12:15:34.984Z,11.70
2018-09-06T12:18:03.380Z,12.58
2018-09-06T12:20:31.693Z,11.67
2018-09-06T12:23:00.038Z,11.73
2018-09-06T12:25:28.529Z,11.60
2018-09-06T12:27:56.754Z,12.60
2018-09-06T12:30:25.113Z,12.53
2018-09-06T12:32:53.451Z,13.17
2018-09-06T12:35:21.825Z,15.33
2018-09-06T12:37:50.200Z,13.47
2018-09-06T12:40:18.573Z,13.40
2018-09-06T12:42:46.901Z,11.77
2018-09-06T12:45:15.244Z,9.70
2018-09-06T12:47:43.592Z,7.80
2018-09-06T12:50:11.933Z,8.70
2018-09-06T12:52:40.340Z,9.00
2018-09-06T12:55:08.669Z,10.80
2018-09-06T12:57:36.973Z,8.23
2018-09-06T13:00:05.390Z,9.97
2018-09-06T13:02:33.732Z,8.03
2018-09-06T13:05:02.573Z,9.13
2018-09-06T13:07:30.869Z,7.40
2018-09-06T13:09:59.186Z,8.37
2018-09-06T13:12:27.489Z,7.07
2018-09-06T13:14:55.797Z,5.80
2018-09-06T13:17:24.117Z,6.37
2018-09-06T13:19:53.286Z,5.63
2018-09-06T13:22:21.604Z,6.33
2018-09-06T13:24:49.928Z,5.37
2018-09-06T13:27:18.242Z,5.90
2018-09-06T13:29:46.543Z,5.97
2018-09-06T13:32:14.852Z,6.67
2018-09-06T13:34:43.169Z,6.87
2018-09-06T13:37:11.522Z,7.07
2018-09-06T13:39:39.849Z,7.40
2018-09-06T13:42:08.149Z,9.40
2018-09-06T13:44:36.456Z,9.13
2018-09-06T13:47:04.744Z,8.97
2018-09-06T13:49:33.141Z,8.97
2018-09-06T13:52:01.590Z,9.47
2018-09-06T13:54:29.896Z,9.73
2018-09-06T13:56:58.192Z,9.13
2018-09-06T13:59:26.521Z,9.20
2018-09-06T14:01:54.905Z,8.90
2018-09-06T14:04:23.220Z,7.20
2018-09-06T14:06:51.521Z,8.37
2018-09-06T14:09:19.808Z,9.03
2018-09-06T14:11:48.124Z,8.10
2018-09-06T14:14:16.418Z,7.73
2018-09-06T14:16:44.818Z,7.90
2018-09-06T14:19:13.067Z,7.30
2018-09-06T14:21:41.368Z,7.20
2018-09-06T14:24:09.802Z,8.20
2018-09-06T14:26:38.053Z,9.70
2018-09-06T14:29:06.362Z,9.27
2018-09-06T14:31:34.681Z,9.30
2018-09-06T14:34:03.148Z,11.47
2018-09-06T14:36:31.479Z,13.20
2018-09-06T14:38:59.980Z,14.53
2018-09-06T14:41:28.252Z,15.43
2018-09-06T14:43:56.585Z,13.03
2018-09-06T14:46:24.872Z,15.50
2018-09-06T14:48:53.176Z,13.37
2018-09-06T14:51:21.497Z,13.73
2018-09-06T14:53:49.800Z,14.83
2018-09-06T14:56:18.118Z,13.37
2018-09-06T14:58:46.424Z,13.23
2018-09-06T15:01:14.781Z,11.97
2018-09-06T15:03:43.089Z,13.70
2018-09-06T15:06:11.420Z,12.47
2018-09-06T15:08:39.732Z,14.77
2018-09-06T15:11:08.077Z,15.40
2018-09-06T15:13:36.393Z,15.67
2018-09-06T15:16:04.749Z,14.20
2018-09-06T15:18:33.057Z,18.03
2018-09-06T15:21:01.405Z,17.23
2018-09-06T15:23:29.897Z,16.47
2018-09-06T15:25:58.234Z,15.77
2018-09-06T15:28:26.545Z,15.53
2018-09-06T15:30:54.868Z,15.73
2018-09-06T15:33:23.174Z,16.37
2018-09-06T15:35:51.501Z,17.97
2018-09-06T15:38:19.817Z,16.53
2018-09-06T15:40:48.158Z,18.63
2018-09-06T15:43:16.486Z,16.97
2018-09-06T15:45:44.842Z,16.63
2018-09-06T15:48:13.153Z,16.20
2018-09-06T15:50:41.456Z,15.77
2018-09-06T15:53:10.097Z,18.30
2018-09-06T15:55:38.452Z,16.00
2018-09-06T15:58:07.005Z,17.07
2018-09-06T16:00:35.313Z,19.50
2018-09-06T16:03:03.665Z,20.40
2018-09-06T16:05:31.974Z,20.77
2018-09-06T16:08:00.306Z,16.90
2018-09-06T16:10:28.618Z,17.43
2018-09-06T16:12:56.940Z,16.63
2018-09-06T16:15:25.244Z,18.80
2018-09-06T16:17:53.569Z,17.87
2018-09-06T16:20:21.877Z,16.27
2018-09-06T16:22:50.233Z,15.57
2018-09-06T16:25:18.545Z,18.97
2018-09-06T16:27:46.877Z,19.03
2018-09-06T16:30:15.221Z,18.60
2018-09-06T16:32:44.157Z,17.00
2018-09-06T16:35:12.466Z,16.27
2018-09-06T16:37:40.801Z,19.00
2018-09-06T16:40:09.129Z,17.47
2018-09-06T16:42:37.508Z,19.27
2018-09-06T16:45:05.828Z,17.30
2018-09-06T16:47:34.173Z,18.33
2018-09-06T16:50:02.478Z,18.33
2018-09-06T16:52:30.837Z,15.07
2018-09-06T16:54:59.146Z,16.13
2018-09-06T16:57:27.565Z,15.63
2018-09-06T16:59:55.881Z,16.33
2018-09-06T17:02:24.220Z,17.63
2018-09-06T17:04:52.553Z,16.33
2018-09-06T17:07:20.905Z,16.10
2018-09-06T17:09:49.235Z,15.33
2018-09-06T17:12:17.565Z,16.80
2018-09-06T17:14:45.890Z,15.90
2018-09-06T17:17:14.209Z,15.70
2018-09-06T17:19:42.521Z,14.90
2018-09-06T17:22:10.825Z,14.87
2018-09-06T17:24:39.143Z,14.93
2018-09-06T17:27:07.445Z,15.87
2018-09-06T17:29:35.770Z,14.60
2018-09-06T17:32:04.076Z,15.93
2018-09-06T17:34:32.401Z,17.40
2018-09-06T17:37:00.713Z,16.37
2018-09-06T17:39:29.080Z,17.37
2018-09-06T17:41:57.385Z,17.87
2018-09-06T17:44:25.702Z,18.63
2018-09-06T17:46:53.996Z,18.30
2018-09-06T17:49:22.307Z,17.20
2018-09-06T17:51:50.601Z,18.90
2018-09-06T17:54:18.965Z,18.60
2018-09-06T17:56:47.234Z,21.37
2018-09-06T17:59:15.564Z,20.87
2018-09-06T18:01:44.247Z,19.50
2018-09-06T18:04:12.572Z,19.93
2018-09-06T18:06:40.905Z,21.37
2018-09-06T18:09:10.737Z,20.30
2018-09-06T18:11:39.513Z,19.43
2018-09-06T18:14:07.884Z,20.13
2018-09-06T18:16:36.232Z,19.33
2018-09-06T18:19:04.622Z,20.10
2018-09-06T18:21:33.104Z,19.67
2018-09-06T18:24:01.489Z,20.77
2018-09-06T18:26:29.832Z,20.43
2018-09-06T18:28:58.377Z,20.30
2018-09-06T18:31:26.728Z,22.57
2018-09-06T18:33:55.081Z,20.23
2018-09-06T18:36:23.433Z,20.47
2018-09-06T18:38:51.917Z,21.07
2018-09-06T18:41:20.249Z,20.87
2018-09-06T18:43:48.564Z,22.13
2018-09-06T18:46:16.912Z,22.20
2018-09-06T18:48:45.226Z,21.67
2018-09-06T18:51:13.576Z,22.77
2018-09-06T18:53:41.913Z,23.83
2018-09-06T18:56:10.433Z,22.60
2018-09-06T18:58:38.900Z,22.37
2018-09-06T19:01:07.270Z,20.83
2018-09-06T19:03:35.602Z,22.90
2018-09-06T19:06:03.940Z,22.30
2018-09-06T19:08:32.277Z,20.97
2018-09-06T19:11:00.604Z,24.87
2018-09-06T19:13:29.264Z,22.07
2018-09-06T19:15:57.601Z,21.40
2018-09-06T19:18:25.933Z,21.37
2018-09-06T19:20:54.261Z,20.93
2018-09-06T19:23:22.564Z,20.67
2018-09-06T19:25:50.893Z,19.90
2018-09-06T19:28:19.200Z,20.50
2018-09-06T19:30:47.548Z,22.47
2018-09-06T19:33:16.293Z,21.37
2018-09-06T19:35:44.637Z,22.33
2018-09-06T19:38:13.062Z,21.57
2018-09-06T19:40:41.412Z,22.47
2018-09-06T19:43:09.724Z,24.60
2018-09-06T19:45:38.053Z,24.53
2018-09-06T19:48:06.566Z,23.33
2018-09-06T19:50:34.893Z,25.97
2018-09-06T19:53:03.196Z,25.70
2018-09-06T19:55:31.521Z,23.07
2018-09-06T19:57:59.832Z,24.93
2018-09-06T20:00:28.176Z,28.33
2018-09-06T20:02:56.529Z,26.30
2018-09-06T20:05:24.881Z,25.27
2018-09-06T20:07:53.215Z,25.43
2018-09-06T20:10:21.545Z,28.90
2018-09-06T20:12:50.567Z,26.13
2018-09-06T20:15:18.908Z,28.43
2018-09-06T20:17:47.233Z,24.00
2018-09-06T20:20:15.596Z,26.40
2018-09-06T20:22:44.587Z,29.40
2018-09-06T20:25:12.916Z,29.40
2018-09-06T20:27:41.217Z,29.80
2018-09-06T20:30:09.541Z,26.90
2018-09-06T20:32:37.873Z,28.27
2018-09-06T20:35:06.364Z,27.70
2018-09-06T20:37:34.707Z,28.30
2018-09-06T20:40:03.032Z,33.87
2018-09-06T20:42:31.364Z,30.10
2018-09-06T20:44:59.667Z,30.27
2018-09-06T20:47:28.037Z,27.20
2018-09-06T20:49:56.400Z,29.00
2018-09-06T20:52:24.830Z,27.73
2018-09-06T20:54:53.137Z,27.80
2018-09-06T20:57:21.465Z,31.00
2018-09-06T20:59:49.774Z,28.57
2018-09-06T21:02:23.456Z,28.13
2018-09-06T21:04:52.633Z,31.43
2018-09-06T21:07:21.332Z,29.80
2018-09-06T21:09:49.660Z,28.53
2018-09-06T21:12:17.992Z,30.50
2018-09-06T21:14:46.452Z,26.63
2018-09-06T21:17:14.761Z,27.47
2018-09-06T21:19:43.077Z,29.77
2018-09-06T21:22:11.416Z,28.47
2018-09-06T21:24:39.704Z,29.07
2018-09-06T21:27:08.020Z,29.30
2018-09-06T21:29:36.316Z,33.23
2018-09-06T21:32:04.945Z,31.23
2018-09-06T21:34:33.248Z,27.93
2018-09-06T21:37:01.560Z,29.07
2018-09-06T21:39:29.868Z,29.70
2018-09-06T21:41:58.198Z,27.27
2018-09-06T21:44:26.537Z,31.30
2018-09-06T21:46:54.912Z,32.23
2018-09-06T21:49:23.209Z,26.60
2018-09-06T21:51:51.523Z,27.17
2018-09-06T21:54:19.821Z,29.57
2018-09-06T21:56:48.184Z,32.10
2018-09-06T21:59:16.497Z,28.83
2018-09-06T22:01:44.841Z,29.87
2018-09-06T22:04:13.149Z,32.83
2018-09-06T22:06:41.492Z,30.17
2018-09-06T22:09:11.698Z,33.27
2018-09-06T22:11:40.195Z,31.70
2018-09-06T22:14:08.756Z,30.37
2018-09-06T22:16:37.084Z,28.60
2018-09-06T22:19:05.480Z,30.63
2018-09-06T22:21:34.022Z,30.57
2018-09-06T22:24:02.328Z,32.73
2018-09-06T22:26:30.652Z,30.70
2018-09-06T22:28:58.989Z,34.27
2018-09-06T22:31:27.288Z,32.00
2018-09-06T22:33:55.625Z,30.87
2018-09-06T22:36:23.925Z,31.73
2018-09-06T22:38:52.252Z,31.33
2018-09-06T22:41:20.616Z,32.57
2018-09-06T22:43:48.948Z,31.10
2018-09-06T22:46:17.246Z,30.23
2018-09-06T22:48:45.591Z,34.83
2018-09-06T22:51:13.897Z,31.53
2018-09-06T22:53:42.232Z,28.83
2018-09-06T22:56:10.532Z,34.40
2018-09-06T22:58:38.884Z,32.57
2018-09-06T23:01:07.336Z,33.70
2018-09-06T23:03:41.900Z,34.53
2018-09-06T23:06:10.204Z,33.17
2018-09-06T23:08:38.553Z,36.47
2018-09-06T23:11:06.853Z,34.20
2018-09-06T23:13:35.181Z,37.07
2018-09-06T23:16:03.520Z,35.50
2018-09-06T23:18:31.906Z,42.10
2018-09-06T23:21:00.216Z,50.10
2018-09-06T23:23:28.609Z,46.40
2018-09-06T23:25:56.917Z,53.77
2018-09-06T23:28:25.245Z,57.70
2018-09-06T23:30:53.545Z,53.97
2018-09-06T23:33:21.882Z,62.03
2018-09-06T23:35:50.193Z,58.70
2018-09-06T23:38:19.337Z,59.43
2018-09-06T23:40:54.389Z,52.60
2018-09-06T23:43:23.832Z,48.37
2018-09-06T23:45:53.295Z,45.43
2018-09-06T23:48:23.672Z,43.43
2018-09-06T23:50:52.408Z,63.03
2018-09-06T23:53:20.785Z,55.63
2018-09-06T23:55:49.114Z,66.70
2018-09-06T23:58:17.452Z,59.43
